sensor_id;sensor_type;location;lat;lon;timestamp;temperature;humidity
5978;DHT22;3015;51.390;12.256;2023-03-17T00:01:10;2.90;1.00
5978;DHT22;3015;51.390;12.256;2023-03-17T00:03:39;2.80;1.00
5978;DHT22;3015;51.390;12.256;2023-03-17T00:06:09;2.70;1.00
5978;DHT22;3015;51.390;12.256;2023-03-17T00:08:39;2.80;1.00
5978;DHT22;3015;51.390;12.256;2023-03-17T00:11:05;2.80;1.00
5978;DHT22;3015;51.390;12.256;2023-03-17T00:13:34;2.70;1.00
5978;DHT22;3015;51.390;12.256;2023-03-17T00:16:02;2.80;1.00
5978;DHT22;3015;51.390;12.256;2023-03-17T00:18:28;2.80;1.00
5978;DHT22;3015;51.390;12.256;2023-03-17T00:20:58;2.60;1.00
5978;DHT22;3015;51.390;12.256;2023-03-17T00:23:24;2.60;1.00
5978;DHT22;3015;51.390;12.256;2023-03-17T00:25:50;2.50;1.00
5978;DHT22;3015;51.390;12.256;2023-03-17T00:28:23;2.50;1.00
5978;DHT22;3015;51.390;12.256;2023-03-17T00:30:52;2.40;1.00
5978;DHT22;3015;51.390;12.256;2023-03-17T00:33:22;2.30;1.00
5978;DHT22;3015;51.390;12.256;2023-03-17T00:35:48;2.20;1.00
5978;DHT22;3015;51.390;12.256;2023-03-17T00:38:18;2.20;1.00
5978;DHT22;3015;51.390;12.256;2023-03-17T00:40:45;2.30;1.00
5978;DHT22;3015;51.390;12.256;2023-03-17T00:43:11;2.40;1.00
5978;DHT22;3015;51.390;12.256;2023-03-17T00:45:41;2.50;1.00
5978;DHT22;3015;51.390;12.256;2023-03-17T00:48:20;2.60;1.00
5978;DHT22;3015;51.390;12.256;2023-03-17T00:50:47;2.60;1.00
5978;DHT22;3015;51.390;12.256;2023-03-17T00:53:18;2.60;1.00
5978;DHT22;3015;51.390;12.256;2023-03-17T00:55:45;2.60;1.00
5978;DHT22;3015;51.390;12.256;2023-03-17T00:58:16;2.60;1.00
5978;DHT22;3015;51.390;12.256;2023-03-17T01:00:43;2.60;1.00
5978;DHT22;3015;51.390;12.256;2023-03-17T01:03:10;2.70;1.00
5978;DHT22;3015;51.390;12.256;2023-03-17T01:05:36;2.90;1.00
5978;DHT22;3015;51.390;12.256;2023-03-17T01:08:03;2.90;1.00
5978;DHT22;3015;51.390;12.256;2023-03-17T01:10:29;2.90;1.00
5978;DHT22;3015;51.390;12.256;2023-03-17T01:12:56;3.00;1.00
5978;DHT22;3015;51.390;12.256;2023-03-17T01:15:24;3.00;1.00
5978;DHT22;3015;51.390;12.256;2023-03-17T01:17:51;3.10;99.90
5978;DHT22;3015;51.390;12.256;2023-03-17T01:20:20;3.20;1.00
5978;DHT22;3015;51.390;12.256;2023-03-17T01:22:46;3.30;1.00
5978;DHT22;3015;51.390;12.256;2023-03-17T01:25:13;3.30;1.00
5978;DHT22;3015;51.390;12.256;2023-03-17T01:27:40;3.30;99.90
5978;DHT22;3015;51.390;12.256;2023-03-17T01:32:41;3.40;99.90
5978;DHT22;3015;51.390;12.256;2023-03-17T01:35:07;3.50;99.90
5978;DHT22;3015;51.390;12.256;2023-03-17T01:37:32;3.50;99.90
5978;DHT22;3015;51.390;12.256;2023-03-17T01:39:58;3.60;99.90
5978;DHT22;3015;51.390;12.256;2023-03-17T01:42:24;3.50;99.90
5978;DHT22;3015;51.390;12.256;2023-03-17T01:45:01;3.50;99.90
5978;DHT22;3015;51.390;12.256;2023-03-17T01:47:28;3.50;99.90
5978;DHT22;3015;51.390;12.256;2023-03-17T01:50:07;3.40;99.90
5978;DHT22;3015;51.390;12.256;2023-03-17T01:52:37;3.30;99.90
5978;DHT22;3015;51.390;12.256;2023-03-17T01:55:07;3.20;99.90
5978;DHT22;3015;51.390;12.256;2023-03-17T01:57:45;3.20;99.90
5978;DHT22;3015;51.390;12.256;2023-03-17T02:00:20;3.40;99.90
5978;DHT22;3015;51.390;12.256;2023-03-17T02:02:50;3.30;99.90
5978;DHT22;3015;51.390;12.256;2023-03-17T02:05:20;3.40;99.90
5978;DHT22;3015;51.390;12.256;2023-03-17T02:07:45;3.40;99.90
5978;DHT22;3015;51.390;12.256;2023-03-17T02:10:13;3.40;99.90
5978;DHT22;3015;51.390;12.256;2023-03-17T02:12:41;3.30;99.90
5978;DHT22;3015;51.390;12.256;2023-03-17T02:15:08;3.20;99.90
5978;DHT22;3015;51.390;12.256;2023-03-17T02:17:33;3.10;99.90
5978;DHT22;3015;51.390;12.256;2023-03-17T02:22:43;3.20;99.90
5978;DHT22;3015;51.390;12.256;2023-03-17T02:25:10;3.10;99.90
5978;DHT22;3015;51.390;12.256;2023-03-17T02:27:40;3.20;99.90
5978;DHT22;3015;51.390;12.256;2023-03-17T02:30:09;3.20;99.90
5978;DHT22;3015;51.390;12.256;2023-03-17T02:32:35;3.10;99.90
5978;DHT22;3015;51.390;12.256;2023-03-17T02:35:02;3.10;99.90
5978;DHT22;3015;51.390;12.256;2023-03-17T02:37:27;3.10;99.90
5978;DHT22;3015;51.390;12.256;2023-03-17T02:39:53;3.10;99.90
5978;DHT22;3015;51.390;12.256;2023-03-17T02:42:19;3.10;99.90
5978;DHT22;3015;51.390;12.256;2023-03-17T02:44:45;3.20;99.90
5978;DHT22;3015;51.390;12.256;2023-03-17T02:47:11;3.20;99.90
5978;DHT22;3015;51.390;12.256;2023-03-17T02:49:38;3.30;99.90
5978;DHT22;3015;51.390;12.256;2023-03-17T02:52:05;3.30;99.90
5978;DHT22;3015;51.390;12.256;2023-03-17T02:54:31;3.40;99.90
5978;DHT22;3015;51.390;12.256;2023-03-17T02:56:57;3.30;99.90
5978;DHT22;3015;51.390;12.256;2023-03-17T02:59:23;3.30;99.90
5978;DHT22;3015;51.390;12.256;2023-03-17T03:01:48;3.40;99.90
5978;DHT22;3015;51.390;12.256;2023-03-17T03:04:15;3.40;99.90
5978;DHT22;3015;51.390;12.256;2023-03-17T03:06:41;3.40;99.90
5978;DHT22;3015;51.390;12.256;2023-03-17T03:09:09;3.40;99.90
5978;DHT22;3015;51.390;12.256;2023-03-17T03:11:39;3.40;99.90
5978;DHT22;3015;51.390;12.256;2023-03-17T03:14:06;3.40;99.90
5978;DHT22;3015;51.390;12.256;2023-03-17T03:16:32;3.40;99.90
5978;DHT22;3015;51.390;12.256;2023-03-17T03:18:59;3.50;99.90
5978;DHT22;3015;51.390;12.256;2023-03-17T03:21:25;3.50;99.90
5978;DHT22;3015;51.390;12.256;2023-03-17T03:23:51;3.40;99.90
5978;DHT22;3015;51.390;12.256;2023-03-17T03:26:16;3.40;99.90
5978;DHT22;3015;51.390;12.256;2023-03-17T03:28:42;3.40;99.90
5978;DHT22;3015;51.390;12.256;2023-03-17T03:31:08;3.50;99.90
5978;DHT22;3015;51.390;12.256;2023-03-17T03:33:34;3.50;99.90
5978;DHT22;3015;51.390;12.256;2023-03-17T03:35:59;3.50;99.90
5978;DHT22;3015;51.390;12.256;2023-03-17T03:38:26;3.50;99.90
5978;DHT22;3015;51.390;12.256;2023-03-17T03:40:52;3.80;99.90
5978;DHT22;3015;51.390;12.256;2023-03-17T03:43:18;3.80;99.90
5978;DHT22;3015;51.390;12.256;2023-03-17T03:45:44;3.80;99.90
5978;DHT22;3015;51.390;12.256;2023-03-17T03:48:10;4.00;99.90
5978;DHT22;3015;51.390;12.256;2023-03-17T03:50:36;4.00;99.90
5978;DHT22;3015;51.390;12.256;2023-03-17T03:53:01;4.10;99.90
5978;DHT22;3015;51.390;12.256;2023-03-17T03:55:27;4.30;99.90
5978;DHT22;3015;51.390;12.256;2023-03-17T03:57:52;4.30;99.90
5978;DHT22;3015;51.390;12.256;2023-03-17T04:00:18;4.20;99.90
5978;DHT22;3015;51.390;12.256;2023-03-17T04:02:44;4.30;99.90
5978;DHT22;3015;51.390;12.256;2023-03-17T04:05:12;4.30;99.90
5978;DHT22;3015;51.390;12.256;2023-03-17T04:07:38;4.30;99.90
5978;DHT22;3015;51.390;12.256;2023-03-17T04:10:04;4.30;99.90
5978;DHT22;3015;51.390;12.256;2023-03-17T04:12:30;4.30;99.90
5978;DHT22;3015;51.390;12.256;2023-03-17T04:14:56;4.30;99.90
5978;DHT22;3015;51.390;12.256;2023-03-17T04:17:21;4.20;99.90
5978;DHT22;3015;51.390;12.256;2023-03-17T04:19:47;4.20;99.90
5978;DHT22;3015;51.390;12.256;2023-03-17T04:22:13;4.30;99.90
5978;DHT22;3015;51.390;12.256;2023-03-17T04:24:39;4.30;99.90
5978;DHT22;3015;51.390;12.256;2023-03-17T04:27:05;4.40;99.90
5978;DHT22;3015;51.390;12.256;2023-03-17T04:29:32;4.40;99.90
5978;DHT22;3015;51.390;12.256;2023-03-17T04:31:58;4.40;99.90
5978;DHT22;3015;51.390;12.256;2023-03-17T04:34:24;4.40;99.90
5978;DHT22;3015;51.390;12.256;2023-03-17T04:36:50;4.40;99.90
5978;DHT22;3015;51.390;12.256;2023-03-17T04:39:15;4.30;99.90
5978;DHT22;3015;51.390;12.256;2023-03-17T04:41:41;4.40;99.90
5978;DHT22;3015;51.390;12.256;2023-03-17T04:44:07;4.30;99.90
5978;DHT22;3015;51.390;12.256;2023-03-17T04:46:33;4.30;99.90
5978;DHT22;3015;51.390;12.256;2023-03-17T04:48:59;4.30;99.90
5978;DHT22;3015;51.390;12.256;2023-03-17T04:51:25;4.30;99.90
5978;DHT22;3015;51.390;12.256;2023-03-17T04:53:51;4.30;99.90
5978;DHT22;3015;51.390;12.256;2023-03-17T04:56:17;4.30;99.90
5978;DHT22;3015;51.390;12.256;2023-03-17T04:58:43;4.10;99.90
5978;DHT22;3015;51.390;12.256;2023-03-17T05:01:09;4.10;99.90
5978;DHT22;3015;51.390;12.256;2023-03-17T05:03:35;4.10;99.90
5978;DHT22;3015;51.390;12.256;2023-03-17T05:06:01;4.10;99.90
5978;DHT22;3015;51.390;12.256;2023-03-17T05:08:27;4.10;99.90
5978;DHT22;3015;51.390;12.256;2023-03-17T05:10:54;4.10;99.90
5978;DHT22;3015;51.390;12.256;2023-03-17T05:13:21;4.10;99.90
5978;DHT22;3015;51.390;12.256;2023-03-17T05:15:48;4.00;99.90
5978;DHT22;3015;51.390;12.256;2023-03-17T05:18:14;4.00;99.90
5978;DHT22;3015;51.390;12.256;2023-03-17T05:20:40;4.10;99.90
5978;DHT22;3015;51.390;12.256;2023-03-17T05:23:06;4.10;99.90
5978;DHT22;3015;51.390;12.256;2023-03-17T05:25:32;4.20;99.90
5978;DHT22;3015;51.390;12.256;2023-03-17T05:27:57;4.20;99.90
5978;DHT22;3015;51.390;12.256;2023-03-17T05:30:23;4.10;99.90
5978;DHT22;3015;51.390;12.256;2023-03-17T05:32:50;4.10;99.90
5978;DHT22;3015;51.390;12.256;2023-03-17T05:35:16;4.10;99.90
5978;DHT22;3015;51.390;12.256;2023-03-17T05:37:42;4.10;99.90
5978;DHT22;3015;51.390;12.256;2023-03-17T05:40:09;4.20;99.90
5978;DHT22;3015;51.390;12.256;2023-03-17T05:42:35;4.30;99.90
5978;DHT22;3015;51.390;12.256;2023-03-17T05:45:01;4.30;99.90
5978;DHT22;3015;51.390;12.256;2023-03-17T05:47:26;4.30;99.90
5978;DHT22;3015;51.390;12.256;2023-03-17T05:49:52;4.30;99.90
5978;DHT22;3015;51.390;12.256;2023-03-17T05:52:18;4.30;99.90
5978;DHT22;3015;51.390;12.256;2023-03-17T05:54:44;4.30;99.90
5978;DHT22;3015;51.390;12.256;2023-03-17T05:57:12;4.30;99.90
5978;DHT22;3015;51.390;12.256;2023-03-17T05:59:37;4.30;99.90
5978;DHT22;3015;51.390;12.256;2023-03-17T06:02:03;4.40;99.90
5978;DHT22;3015;51.390;12.256;2023-03-17T06:04:29;4.50;99.90
5978;DHT22;3015;51.390;12.256;2023-03-17T06:06:54;4.50;99.90
5978;DHT22;3015;51.390;12.256;2023-03-17T06:09:20;4.60;99.90
5978;DHT22;3015;51.390;12.256;2023-03-17T06:11:45;4.60;99.90
5978;DHT22;3015;51.390;12.256;2023-03-17T06:14:11;4.70;99.90
5978;DHT22;3015;51.390;12.256;2023-03-17T06:16:37;4.80;99.90
5978;DHT22;3015;51.390;12.256;2023-03-17T06:19:03;4.90;99.90
5978;DHT22;3015;51.390;12.256;2023-03-17T06:21:28;5.00;99.90
5978;DHT22;3015;51.390;12.256;2023-03-17T06:23:54;5.10;99.90
5978;DHT22;3015;51.390;12.256;2023-03-17T06:26:20;5.20;99.90
5978;DHT22;3015;51.390;12.256;2023-03-17T06:28:46;5.30;99.90
5978;DHT22;3015;51.390;12.256;2023-03-17T06:31:11;5.40;99.90
5978;DHT22;3015;51.390;12.256;2023-03-17T06:33:37;5.50;99.90
5978;DHT22;3015;51.390;12.256;2023-03-17T06:36:03;5.70;99.90
5978;DHT22;3015;51.390;12.256;2023-03-17T06:38:29;5.80;99.90
5978;DHT22;3015;51.390;12.256;2023-03-17T06:40:54;5.90;99.90
5978;DHT22;3015;51.390;12.256;2023-03-17T06:43:20;6.10;99.90
5978;DHT22;3015;51.390;12.256;2023-03-17T06:45:48;6.10;99.90
5978;DHT22;3015;51.390;12.256;2023-03-17T06:48:14;6.20;99.90
5978;DHT22;3015;51.390;12.256;2023-03-17T06:50:40;6.30;99.90
5978;DHT22;3015;51.390;12.256;2023-03-17T06:53:05;6.70;99.90
5978;DHT22;3015;51.390;12.256;2023-03-17T06:55:31;7.40;99.90
5978;DHT22;3015;51.390;12.256;2023-03-17T06:57:58;8.00;99.90
5978;DHT22;3015;51.390;12.256;2023-03-17T07:00:25;8.40;99.90
5978;DHT22;3015;51.390;12.256;2023-03-17T07:02:50;8.10;99.90
5978;DHT22;3015;51.390;12.256;2023-03-17T07:05:17;7.90;99.90
5978;DHT22;3015;51.390;12.256;2023-03-17T07:07:42;7.80;99.90
5978;DHT22;3015;51.390;12.256;2023-03-17T07:10:09;7.80;99.90
5978;DHT22;3015;51.390;12.256;2023-03-17T07:12:36;8.40;99.90
5978;DHT22;3015;51.390;12.256;2023-03-17T07:15:02;9.40;99.90
5978;DHT22;3015;51.390;12.256;2023-03-17T07:17:27;10.20;99.90
5978;DHT22;3015;51.390;12.256;2023-03-17T07:19:54;10.10;99.90
5978;DHT22;3015;51.390;12.256;2023-03-17T07:22:20;10.50;99.90
5978;DHT22;3015;51.390;12.256;2023-03-17T07:24:46;10.70;99.90
5978;DHT22;3015;51.390;12.256;2023-03-17T07:27:16;10.70;99.90
5978;DHT22;3015;51.390;12.256;2023-03-17T07:29:42;11.50;99.90
5978;DHT22;3015;51.390;12.256;2023-03-17T07:32:07;12.40;99.90
5978;DHT22;3015;51.390;12.256;2023-03-17T07:34:34;13.10;99.90
5978;DHT22;3015;51.390;12.256;2023-03-17T07:37:01;12.50;99.90
5978;DHT22;3015;51.390;12.256;2023-03-17T07:39:27;13.20;99.90
5978;DHT22;3015;51.390;12.256;2023-03-17T07:41:53;12.60;99.90
5978;DHT22;3015;51.390;12.256;2023-03-17T07:44:23;13.10;99.90
5978;DHT22;3015;51.390;12.256;2023-03-17T07:46:50;12.40;99.90
5978;DHT22;3015;51.390;12.256;2023-03-17T07:49:15;11.60;99.90
5978;DHT22;3015;51.390;12.256;2023-03-17T07:51:41;12.00;99.90
5978;DHT22;3015;51.390;12.256;2023-03-17T07:54:11;12.50;99.90
5978;DHT22;3015;51.390;12.256;2023-03-17T07:56:38;13.00;99.90
5978;DHT22;3015;51.390;12.256;2023-03-17T07:59:05;13.60;99.90
5978;DHT22;3015;51.390;12.256;2023-03-17T08:01:32;13.00;99.90
5978;DHT22;3015;51.390;12.256;2023-03-17T08:03:57;13.60;99.90
5978;DHT22;3015;51.390;12.256;2023-03-17T08:06:24;13.40;99.90
5978;DHT22;3015;51.390;12.256;2023-03-17T08:08:50;13.90;99.90
5978;DHT22;3015;51.390;12.256;2023-03-17T08:11:16;13.60;99.90
5978;DHT22;3015;51.390;12.256;2023-03-17T08:13:43;14.80;99.90
5978;DHT22;3015;51.390;12.256;2023-03-17T08:16:08;14.80;99.90
5978;DHT22;3015;51.390;12.256;2023-03-17T08:18:34;15.00;99.90
5978;DHT22;3015;51.390;12.256;2023-03-17T08:21:01;16.10;99.90
5978;DHT22;3015;51.390;12.256;2023-03-17T08:23:26;17.00;99.90
5978;DHT22;3015;51.390;12.256;2023-03-17T08:25:57;15.90;99.90
5978;DHT22;3015;51.390;12.256;2023-03-17T08:28:22;15.00;99.90
5978;DHT22;3015;51.390;12.256;2023-03-17T08:30:48;15.00;99.90
5978;DHT22;3015;51.390;12.256;2023-03-17T08:33:14;15.80;99.90
5978;DHT22;3015;51.390;12.256;2023-03-17T08:35:40;15.90;99.90
5978;DHT22;3015;51.390;12.256;2023-03-17T08:38:07;15.10;99.90
5978;DHT22;3015;51.390;12.256;2023-03-17T08:40:32;16.00;99.90
5978;DHT22;3015;51.390;12.256;2023-03-17T08:42:58;17.50;99.90
5978;DHT22;3015;51.390;12.256;2023-03-17T08:45:24;18.50;99.90
5978;DHT22;3015;51.390;12.256;2023-03-17T08:47:50;18.70;99.90
5978;DHT22;3015;51.390;12.256;2023-03-17T08:50:21;17.70;99.90
5978;DHT22;3015;51.390;12.256;2023-03-17T08:52:48;17.80;99.90
5978;DHT22;3015;51.390;12.256;2023-03-17T08:55:14;17.80;99.90
5978;DHT22;3015;51.390;12.256;2023-03-17T08:57:40;18.20;99.90
5978;DHT22;3015;51.390;12.256;2023-03-17T09:00:08;16.90;99.90
5978;DHT22;3015;51.390;12.256;2023-03-17T09:02:42;17.00;99.90
5978;DHT22;3015;51.390;12.256;2023-03-17T09:05:10;16.70;99.90
5978;DHT22;3015;51.390;12.256;2023-03-17T09:07:36;17.70;99.90
5978;DHT22;3015;51.390;12.256;2023-03-17T09:10:03;17.40;99.90
5978;DHT22;3015;51.390;12.256;2023-03-17T09:12:29;17.00;99.90
5978;DHT22;3015;51.390;12.256;2023-03-17T09:14:55;17.20;99.90
5978;DHT22;3015;51.390;12.256;2023-03-17T09:17:21;17.90;99.90
5978;DHT22;3015;51.390;12.256;2023-03-17T09:19:47;18.10;99.90
5978;DHT22;3015;51.390;12.256;2023-03-17T09:22:14;18.00;99.90
5978;DHT22;3015;51.390;12.256;2023-03-17T09:24:40;17.40;99.90
5978;DHT22;3015;51.390;12.256;2023-03-17T09:27:06;17.50;99.90
5978;DHT22;3015;51.390;12.256;2023-03-17T09:29:32;18.40;99.90
5978;DHT22;3015;51.390;12.256;2023-03-17T09:31:58;18.80;99.90
5978;DHT22;3015;51.390;12.256;2023-03-17T09:34:25;19.00;99.90
5978;DHT22;3015;51.390;12.256;2023-03-17T09:36:52;17.50;99.90
5978;DHT22;3015;51.390;12.256;2023-03-17T09:39:18;17.20;99.90
5978;DHT22;3015;51.390;12.256;2023-03-17T09:42:07;17.30;99.90
5978;DHT22;3015;51.390;12.256;2023-03-17T09:50:15;18.10;99.90
5978;DHT22;3015;51.390;12.256;2023-03-17T09:52:42;18.50;99.90
5978;DHT22;3015;51.390;12.256;2023-03-17T09:55:15;18.20;99.90
5978;DHT22;3015;51.390;12.256;2023-03-17T09:57:44;17.70;99.90
5978;DHT22;3015;51.390;12.256;2023-03-17T10:00:17;18.30;99.90
5978;DHT22;3015;51.390;12.256;2023-03-17T10:02:45;19.00;99.90
5978;DHT22;3015;51.390;12.256;2023-03-17T10:05:21;19.60;99.90
5978;DHT22;3015;51.390;12.256;2023-03-17T10:07:54;20.00;99.90
5978;DHT22;3015;51.390;12.256;2023-03-17T10:10:51;19.90;99.90
5978;DHT22;3015;51.390;12.256;2023-03-17T10:13:23;19.60;99.90
5978;DHT22;3015;51.390;12.256;2023-03-17T10:16:04;19.20;99.90
5978;DHT22;3015;51.390;12.256;2023-03-17T10:18:56;20.20;99.90
5978;DHT22;3015;51.390;12.256;2023-03-17T10:21:33;20.10;99.90
5978;DHT22;3015;51.390;12.256;2023-03-17T10:24:01;20.00;99.90
5978;DHT22;3015;51.390;12.256;2023-03-17T10:26:33;19.90;99.90
5978;DHT22;3015;51.390;12.256;2023-03-17T10:29:07;19.10;99.90
5978;DHT22;3015;51.390;12.256;2023-03-17T10:31:37;18.90;99.90
5978;DHT22;3015;51.390;12.256;2023-03-17T10:34:33;18.60;99.90
5978;DHT22;3015;51.390;12.256;2023-03-17T10:37:14;18.00;99.90
5978;DHT22;3015;51.390;12.256;2023-03-17T10:39:47;17.80;99.90
5978;DHT22;3015;51.390;12.256;2023-03-17T10:42:24;18.00;99.90
5978;DHT22;3015;51.390;12.256;2023-03-17T10:45:20;18.70;99.90
5978;DHT22;3015;51.390;12.256;2023-03-17T10:47:49;19.60;99.90
5978;DHT22;3015;51.390;12.256;2023-03-17T10:50:22;18.70;99.90
5978;DHT22;3015;51.390;12.256;2023-03-17T10:53:16;18.50;99.90
5978;DHT22;3015;51.390;12.256;2023-03-17T10:55:50;17.70;99.90
5978;DHT22;3015;51.390;12.256;2023-03-17T10:58:31;17.10;99.90
5978;DHT22;3015;51.390;12.256;2023-03-17T11:01:04;16.90;99.90
5978;DHT22;3015;51.390;12.256;2023-03-17T11:03:35;17.20;99.90
5978;DHT22;3015;51.390;12.256;2023-03-17T11:06:08;17.40;99.90
5978;DHT22;3015;51.390;12.256;2023-03-17T11:08:49;17.40;99.90
5978;DHT22;3015;51.390;12.256;2023-03-17T11:11:46;17.80;99.90
5978;DHT22;3015;51.390;12.256;2023-03-17T11:14:16;18.10;99.90
5978;DHT22;3015;51.390;12.256;2023-03-17T11:16:52;18.20;99.90
5978;DHT22;3015;51.390;12.256;2023-03-17T11:19:19;18.10;99.90
5978;DHT22;3015;51.390;12.256;2023-03-17T11:22:16;18.20;99.90
5978;DHT22;3015;51.390;12.256;2023-03-17T11:25:03;18.30;99.90
5978;DHT22;3015;51.390;12.256;2023-03-17T11:27:39;18.60;99.90
5978;DHT22;3015;51.390;12.256;2023-03-17T11:35:32;19.00;99.90
5978;DHT22;3015;51.390;12.256;2023-03-17T11:38:09;19.20;99.90
5978;DHT22;3015;51.390;12.256;2023-03-17T11:43:13;19.60;99.90
5978;DHT22;3015;51.390;12.256;2023-03-17T11:45:51;19.60;99.90
5978;DHT22;3015;51.390;12.256;2023-03-17T11:51:02;20.50;99.90
5978;DHT22;3015;51.390;12.256;2023-03-17T12:04:29;19.40;99.90
5978;DHT22;3015;51.390;12.256;2023-03-17T12:07:18;19.70;99.90
5978;DHT22;3015;51.390;12.256;2023-03-17T12:09:58;19.80;99.90
5978;DHT22;3015;51.390;12.256;2023-03-17T12:12:32;19.80;99.90
5978;DHT22;3015;51.390;12.256;2023-03-17T12:15:00;19.80;99.90
5978;DHT22;3015;51.390;12.256;2023-03-17T12:17:34;19.80;99.90
5978;DHT22;3015;51.390;12.256;2023-03-17T12:23:05;19.40;99.90
5978;DHT22;3015;51.390;12.256;2023-03-17T12:25:51;19.10;99.90
5978;DHT22;3015;51.390;12.256;2023-03-17T12:28:26;19.00;99.90
5978;DHT22;3015;51.390;12.256;2023-03-17T12:31:04;19.00;99.90
5978;DHT22;3015;51.390;12.256;2023-03-17T12:33:47;18.70;99.90
5978;DHT22;3015;51.390;12.256;2023-03-17T12:36:15;18.80;99.90
5978;DHT22;3015;51.390;12.256;2023-03-17T12:38:45;19.20;99.90
5978;DHT22;3015;51.390;12.256;2023-03-17T12:52:05;20.50;99.90
5978;DHT22;3015;51.390;12.256;2023-03-17T12:54:36;20.10;99.90
5978;DHT22;3015;51.390;12.256;2023-03-17T12:57:26;20.10;99.90
5978;DHT22;3015;51.390;12.256;2023-03-17T12:59:59;20.10;99.90
5978;DHT22;3015;51.390;12.256;2023-03-17T13:04:58;20.20;99.90
5978;DHT22;3015;51.390;12.256;2023-03-17T13:07:33;19.90;99.90
5978;DHT22;3015;51.390;12.256;2023-03-17T13:15:26;19.50;99.90
5978;DHT22;3015;51.390;12.256;2023-03-17T13:18:26;19.30;99.90
5978;DHT22;3015;51.390;12.256;2023-03-17T13:23:54;18.80;99.90
5978;DHT22;3015;51.390;12.256;2023-03-17T13:26:48;18.70;99.90
5978;DHT22;3015;51.390;12.256;2023-03-17T13:29:36;18.80;99.90
5978;DHT22;3015;51.390;12.256;2023-03-17T13:34:47;19.20;99.90
5978;DHT22;3015;51.390;12.256;2023-03-17T13:37:34;19.40;99.90
5978;DHT22;3015;51.390;12.256;2023-03-17T13:40:16;19.30;99.90
5978;DHT22;3015;51.390;12.256;2023-03-17T13:43:16;19.10;99.90
5978;DHT22;3015;51.390;12.256;2023-03-17T13:45:46;18.80;99.90
5978;DHT22;3015;51.390;12.256;2023-03-17T13:48:26;18.70;99.90
5978;DHT22;3015;51.390;12.256;2023-03-17T13:53:39;18.60;99.90
5978;DHT22;3015;51.390;12.256;2023-03-17T13:56:10;18.60;99.90
5978;DHT22;3015;51.390;12.256;2023-03-17T14:01:34;18.90;99.90
5978;DHT22;3015;51.390;12.256;2023-03-17T14:04:04;19.00;99.90
5978;DHT22;3015;51.390;12.256;2023-03-17T14:06:35;18.90;99.90
5978;DHT22;3015;51.390;12.256;2023-03-17T14:09:23;18.70;99.90
5978;DHT22;3015;51.390;12.256;2023-03-17T14:11:53;18.60;99.90
5978;DHT22;3015;51.390;12.256;2023-03-17T14:14:37;18.60;99.90
5978;DHT22;3015;51.390;12.256;2023-03-17T14:19:37;18.30;99.90
5978;DHT22;3015;51.390;12.256;2023-03-17T14:22:23;18.20;99.90
5978;DHT22;3015;51.390;12.256;2023-03-17T14:24:59;18.20;99.90
5978;DHT22;3015;51.390;12.256;2023-03-17T14:27:26;18.20;99.90
5978;DHT22;3015;51.390;12.256;2023-03-17T14:29:53;18.20;99.90
5978;DHT22;3015;51.390;12.256;2023-03-17T14:32:22;18.20;99.90
5978;DHT22;3015;51.390;12.256;2023-03-17T14:34:56;18.10;99.90
5978;DHT22;3015;51.390;12.256;2023-03-17T14:37:23;18.10;99.90
5978;DHT22;3015;51.390;12.256;2023-03-17T14:39:52;18.10;99.90
5978;DHT22;3015;51.390;12.256;2023-03-17T14:42:25;18.10;99.90
5978;DHT22;3015;51.390;12.256;2023-03-17T14:45:17;18.10;99.90
5978;DHT22;3015;51.390;12.256;2023-03-17T14:47:43;18.20;99.90
5978;DHT22;3015;51.390;12.256;2023-03-17T14:50:17;18.20;99.90
5978;DHT22;3015;51.390;12.256;2023-03-17T14:52:45;18.10;99.90
5978;DHT22;3015;51.390;12.256;2023-03-17T14:55:15;18.10;99.90
5978;DHT22;3015;51.390;12.256;2023-03-17T14:57:46;18.30;99.90
5978;DHT22;3015;51.390;12.256;2023-03-17T15:00:42;18.50;99.90
5978;DHT22;3015;51.390;12.256;2023-03-17T15:03:18;18.70;99.90
5978;DHT22;3015;51.390;12.256;2023-03-17T15:05:45;18.70;99.90
5978;DHT22;3015;51.390;12.256;2023-03-17T15:10:58;18.70;99.90
5978;DHT22;3015;51.390;12.256;2023-03-17T15:13:25;18.70;99.90
5978;DHT22;3015;51.390;12.256;2023-03-17T15:15:51;18.60;99.90
5978;DHT22;3015;51.390;12.256;2023-03-17T15:18:17;18.60;99.90
5978;DHT22;3015;51.390;12.256;2023-03-17T15:20:46;18.50;99.90
5978;DHT22;3015;51.390;12.256;2023-03-17T15:23:17;18.40;99.90
5978;DHT22;3015;51.390;12.256;2023-03-17T15:25:48;18.40;99.90
5978;DHT22;3015;51.390;12.256;2023-03-17T15:28:17;18.30;99.90
5978;DHT22;3015;51.390;12.256;2023-03-17T15:30:45;18.20;99.90
5978;DHT22;3015;51.390;12.256;2023-03-17T15:33:41;18.20;99.90
5978;DHT22;3015;51.390;12.256;2023-03-17T15:36:15;18.10;99.90
5978;DHT22;3015;51.390;12.256;2023-03-17T15:38:42;17.90;99.90
5978;DHT22;3015;51.390;12.256;2023-03-17T15:41:07;17.70;99.90
5978;DHT22;3015;51.390;12.256;2023-03-17T15:43:33;17.60;99.90
5978;DHT22;3015;51.390;12.256;2023-03-17T15:46:02;17.50;99.90
5978;DHT22;3015;51.390;12.256;2023-03-17T15:48:30;17.50;99.90
5978;DHT22;3015;51.390;12.256;2023-03-17T15:50:58;17.40;99.90
5978;DHT22;3015;51.390;12.256;2023-03-17T15:53:25;17.40;99.90
5978;DHT22;3015;51.390;12.256;2023-03-17T15:55:51;17.20;99.90
5978;DHT22;3015;51.390;12.256;2023-03-17T15:58:17;17.20;99.90
5978;DHT22;3015;51.390;12.256;2023-03-17T16:00:46;17.10;99.90
5978;DHT22;3015;51.390;12.256;2023-03-17T16:03:23;17.00;99.90
5978;DHT22;3015;51.390;12.256;2023-03-17T16:05:51;16.90;99.90
5978;DHT22;3015;51.390;12.256;2023-03-17T16:08:17;16.80;99.90
5978;DHT22;3015;51.390;12.256;2023-03-17T16:10:44;16.70;99.90
5978;DHT22;3015;51.390;12.256;2023-03-17T16:13:10;16.60;99.90
5978;DHT22;3015;51.390;12.256;2023-03-17T16:15:39;16.50;99.90
5978;DHT22;3015;51.390;12.256;2023-03-17T16:18:11;16.50;99.90
5978;DHT22;3015;51.390;12.256;2023-03-17T16:20:46;16.50;99.90
5978;DHT22;3015;51.390;12.256;2023-03-17T16:23:22;16.40;99.90
5978;DHT22;3015;51.390;12.256;2023-03-17T16:25:49;16.30;99.90
5978;DHT22;3015;51.390;12.256;2023-03-17T16:28:26;16.30;99.90
5978;DHT22;3015;51.390;12.256;2023-03-17T16:30:53;16.10;99.90
5978;DHT22;3015;51.390;12.256;2023-03-17T16:33:23;16.20;99.90
5978;DHT22;3015;51.390;12.256;2023-03-17T16:35:50;16.10;99.90
5978;DHT22;3015;51.390;12.256;2023-03-17T16:38:22;16.00;99.90
5978;DHT22;3015;51.390;12.256;2023-03-17T16:40:50;15.90;99.90
5978;DHT22;3015;51.390;12.256;2023-03-17T16:43:21;15.80;99.90
5978;DHT22;3015;51.390;12.256;2023-03-17T16:45:48;15.80;99.90
5978;DHT22;3015;51.390;12.256;2023-03-17T16:48:14;15.60;99.90
5978;DHT22;3015;51.390;12.256;2023-03-17T16:50:41;15.60;99.90
5978;DHT22;3015;51.390;12.256;2023-03-17T16:53:06;15.50;99.90
5978;DHT22;3015;51.390;12.256;2023-03-17T16:55:33;15.50;99.90
5978;DHT22;3015;51.390;12.256;2023-03-17T16:58:03;15.40;99.90
5978;DHT22;3015;51.390;12.256;2023-03-17T17:00:30;15.30;99.90
5978;DHT22;3015;51.390;12.256;2023-03-17T17:02:57;15.20;99.90
5978;DHT22;3015;51.390;12.256;2023-03-17T17:05:26;15.10;99.90
5978;DHT22;3015;51.390;12.256;2023-03-17T17:07:53;15.00;99.90
5978;DHT22;3015;51.390;12.256;2023-03-17T17:10:20;14.90;99.90
5978;DHT22;3015;51.390;12.256;2023-03-17T17:12:47;14.70;99.90
5978;DHT22;3015;51.390;12.256;2023-03-17T17:15:14;14.80;99.90
5978;DHT22;3015;51.390;12.256;2023-03-17T17:17:43;14.70;99.90
5978;DHT22;3015;51.390;12.256;2023-03-17T17:20:25;14.80;99.90